sensor_id;sensor_type;location;lat;lon;timestamp;temperature;humidity
3699;DHT22;1865;50.918;7.092;2023-05-10T00:01:24;18.00;64.30
3699;DHT22;1865;50.918;7.092;2023-05-10T00:03:50;18.00;63.90
3699;DHT22;1865;50.918;7.092;2023-05-10T00:06:15;18.00;63.70
3699;DHT22;1865;50.918;7.092;2023-05-10T00:08:41;18.00;63.70
3699;DHT22;1865;50.918;7.092;2023-05-10T00:11:06;18.00;63.60
3699;DHT22;1865;50.918;7.092;2023-05-10T00:13:32;18.00;63.70
3699;DHT22;1865;50.918;7.092;2023-05-10T00:15:58;18.00;63.60
3699;DHT22;1865;50.918;7.092;2023-05-10T00:18:23;18.00;63.70
3699;DHT22;1865;50.918;7.092;2023-05-10T00:20:49;18.00;63.70
3699;DHT22;1865;50.918;7.092;2023-05-10T00:23:15;18.00;63.90
3699;DHT22;1865;50.918;7.092;2023-05-10T00:25:40;18.10;64.00
3699;DHT22;1865;50.918;7.092;2023-05-10T00:28:06;18.10;63.60
3699;DHT22;1865;50.918;7.092;2023-05-10T00:30:31;18.00;63.70
3699;DHT22;1865;50.918;7.092;2023-05-10T00:32:57;18.10;63.80
3699;DHT22;1865;50.918;7.092;2023-05-10T00:35:22;18.10;63.80
3699;DHT22;1865;50.918;7.092;2023-05-10T00:37:48;18.10;63.90
3699;DHT22;1865;50.918;7.092;2023-05-10T00:40:14;18.20;63.70
3699;DHT22;1865;50.918;7.092;2023-05-10T00:42:39;18.20;63.60
3699;DHT22;1865;50.918;7.092;2023-05-10T00:45:06;18.20;63.80
3699;DHT22;1865;50.918;7.092;2023-05-10T00:47:32;18.10;63.70
3699;DHT22;1865;50.918;7.092;2023-05-10T00:49:58;18.20;63.60
3699;DHT22;1865;50.918;7.092;2023-05-10T00:52:26;18.20;64.20
3699;DHT22;1865;50.918;7.092;2023-05-10T00:54:52;18.10;63.60
3699;DHT22;1865;50.918;7.092;2023-05-10T00:57:18;18.00;63.70
3699;DHT22;1865;50.918;7.092;2023-05-10T00:59:43;18.10;63.90
3699;DHT22;1865;50.918;7.092;2023-05-10T01:02:09;18.00;63.20
3699;DHT22;1865;50.918;7.092;2023-05-10T01:04:35;18.00;64.00
3699;DHT22;1865;50.918;7.092;2023-05-10T01:07:00;18.00;63.70
3699;DHT22;1865;50.918;7.092;2023-05-10T01:09:27;18.00;64.00
3699;DHT22;1865;50.918;7.092;2023-05-10T01:11:53;18.10;64.60
3699;DHT22;1865;50.918;7.092;2023-05-10T01:14:19;18.10;63.80
3699;DHT22;1865;50.918;7.092;2023-05-10T01:16:47;18.00;63.70
3699;DHT22;1865;50.918;7.092;2023-05-10T01:19:23;18.00;63.60
3699;DHT22;1865;50.918;7.092;2023-05-10T01:28:03;18.10;63.80
3699;DHT22;1865;50.918;7.092;2023-05-10T01:33:27;18.00;63.70
3699;DHT22;1865;50.918;7.092;2023-05-10T01:38:57;18.00;64.00
3699;DHT22;1865;50.918;7.092;2023-05-10T01:41:36;18.10;63.80
3699;DHT22;1865;50.918;7.092;2023-05-10T01:44:09;18.10;63.90
3699;DHT22;1865;50.918;7.092;2023-05-10T01:46:39;18.00;64.20
3699;DHT22;1865;50.918;7.092;2023-05-10T01:49:09;18.00;64.00
3699;DHT22;1865;50.918;7.092;2023-05-10T01:51:50;18.00;64.30
3699;DHT22;1865;50.918;7.092;2023-05-10T01:54:19;18.10;64.10
3699;DHT22;1865;50.918;7.092;2023-05-10T01:56:48;18.10;63.80
3699;DHT22;1865;50.918;7.092;2023-05-10T01:59:17;18.10;63.90
3699;DHT22;1865;50.918;7.092;2023-05-10T02:01:45;18.10;63.80
3699;DHT22;1865;50.918;7.092;2023-05-10T02:04:15;18.20;63.80
3699;DHT22;1865;50.918;7.092;2023-05-10T02:06:42;18.20;63.90
3699;DHT22;1865;50.918;7.092;2023-05-10T02:09:10;18.20;63.80
3699;DHT22;1865;50.918;7.092;2023-05-10T02:11:38;18.20;63.80
3699;DHT22;1865;50.918;7.092;2023-05-10T02:14:07;18.20;63.90
3699;DHT22;1865;50.918;7.092;2023-05-10T02:16:35;18.10;63.90
3699;DHT22;1865;50.918;7.092;2023-05-10T02:19:02;18.10;64.00
3699;DHT22;1865;50.918;7.092;2023-05-10T02:21:29;18.10;64.10
3699;DHT22;1865;50.918;7.092;2023-05-10T02:23:57;18.10;63.50
3699;DHT22;1865;50.918;7.092;2023-05-10T02:26:24;18.00;65.10
3699;DHT22;1865;50.918;7.092;2023-05-10T02:28:52;18.00;64.40
3699;DHT22;1865;50.918;7.092;2023-05-10T02:31:18;18.10;65.20
3699;DHT22;1865;50.918;7.092;2023-05-10T02:33:46;18.00;63.90
3699;DHT22;1865;50.918;7.092;2023-05-10T02:36:12;18.00;64.10
3699;DHT22;1865;50.918;7.092;2023-05-10T02:38:39;18.00;63.90
3699;DHT22;1865;50.918;7.092;2023-05-10T02:41:06;18.00;64.30
3699;DHT22;1865;50.918;7.092;2023-05-10T02:43:33;18.00;64.00
3699;DHT22;1865;50.918;7.092;2023-05-10T02:46:01;18.00;64.20
3699;DHT22;1865;50.918;7.092;2023-05-10T02:48:27;18.00;64.00
3699;DHT22;1865;50.918;7.092;2023-05-10T02:50:55;18.00;64.00
3699;DHT22;1865;50.918;7.092;2023-05-10T02:53:23;18.00;64.10
3699;DHT22;1865;50.918;7.092;2023-05-10T02:55:58;18.00;63.80
3699;DHT22;1865;50.918;7.092;2023-05-10T02:58:24;18.00;63.70
3699;DHT22;1865;50.918;7.092;2023-05-10T03:00:50;18.00;63.70
3699;DHT22;1865;50.918;7.092;2023-05-10T03:03:16;18.00;63.80
3699;DHT22;1865;50.918;7.092;2023-05-10T03:05:41;18.00;63.70
3699;DHT22;1865;50.918;7.092;2023-05-10T03:08:07;17.90;64.20
3699;DHT22;1865;50.918;7.092;2023-05-10T03:10:41;18.00;64.10
3699;DHT22;1865;50.918;7.092;2023-05-10T03:13:16;17.90;63.70
3699;DHT22;1865;50.918;7.092;2023-05-10T03:20:50;17.90;63.70
3699;DHT22;1865;50.918;7.092;2023-05-10T03:23:30;17.90;63.60
3699;DHT22;1865;50.918;7.092;2023-05-10T03:25:59;17.90;63.70
3699;DHT22;1865;50.918;7.092;2023-05-10T03:28:26;17.90;63.70
3699;DHT22;1865;50.918;7.092;2023-05-10T03:30:53;17.90;63.70
3699;DHT22;1865;50.918;7.092;2023-05-10T03:33:19;17.90;63.70
3699;DHT22;1865;50.918;7.092;2023-05-10T03:35:45;17.90;63.70
3699;DHT22;1865;50.918;7.092;2023-05-10T03:38:11;17.90;63.70
3699;DHT22;1865;50.918;7.092;2023-05-10T03:40:37;17.90;63.70
3699;DHT22;1865;50.918;7.092;2023-05-10T03:43:03;17.90;63.60
3699;DHT22;1865;50.918;7.092;2023-05-10T03:45:28;17.90;63.50
3699;DHT22;1865;50.918;7.092;2023-05-10T03:47:54;17.90;63.50
3699;DHT22;1865;50.918;7.092;2023-05-10T03:50:20;17.90;63.70
3699;DHT22;1865;50.918;7.092;2023-05-10T03:52:46;17.90;63.40
3699;DHT22;1865;50.918;7.092;2023-05-10T03:55:11;17.90;63.70
3699;DHT22;1865;50.918;7.092;2023-05-10T03:57:37;17.90;63.60
3699;DHT22;1865;50.918;7.092;2023-05-10T04:00:03;17.90;63.70
3699;DHT22;1865;50.918;7.092;2023-05-10T04:02:29;17.90;63.70
3699;DHT22;1865;50.918;7.092;2023-05-10T04:04:55;17.90;63.70
3699;DHT22;1865;50.918;7.092;2023-05-10T04:07:21;17.90;63.70
3699;DHT22;1865;50.918;7.092;2023-05-10T04:09:47;17.90;63.70
3699;DHT22;1865;50.918;7.092;2023-05-10T04:12:13;17.80;63.60
3699;DHT22;1865;50.918;7.092;2023-05-10T04:14:38;17.80;63.90
3699;DHT22;1865;50.918;7.092;2023-05-10T04:17:04;17.90;64.10
3699;DHT22;1865;50.918;7.092;2023-05-10T04:19:30;17.90;64.20
3699;DHT22;1865;50.918;7.092;2023-05-10T04:21:56;17.90;64.20
3699;DHT22;1865;50.918;7.092;2023-05-10T04:24:21;18.00;64.20
3699;DHT22;1865;50.918;7.092;2023-05-10T04:26:47;18.00;64.00
3699;DHT22;1865;50.918;7.092;2023-05-10T04:29:12;18.00;63.80
3699;DHT22;1865;50.918;7.092;2023-05-10T04:31:38;18.00;64.00
3699;DHT22;1865;50.918;7.092;2023-05-10T04:34:03;18.00;63.80
3699;DHT22;1865;50.918;7.092;2023-05-10T04:36:29;18.00;64.00
3699;DHT22;1865;50.918;7.092;2023-05-10T04:38:54;18.00;64.20
3699;DHT22;1865;50.918;7.092;2023-05-10T04:41:20;18.00;64.20
3699;DHT22;1865;50.918;7.092;2023-05-10T04:43:46;18.00;63.90
3699;DHT22;1865;50.918;7.092;2023-05-10T04:46:14;18.00;64.00
3699;DHT22;1865;50.918;7.092;2023-05-10T04:48:39;18.00;64.00
3699;DHT22;1865;50.918;7.092;2023-05-10T04:51:05;18.00;64.20
3699;DHT22;1865;50.918;7.092;2023-05-10T04:53:31;18.00;64.50
3699;DHT22;1865;50.918;7.092;2023-05-10T04:55:57;18.00;64.40
3699;DHT22;1865;50.918;7.092;2023-05-10T04:58:23;18.10;64.30
3699;DHT22;1865;50.918;7.092;2023-05-10T05:00:48;18.10;64.20
3699;DHT22;1865;50.918;7.092;2023-05-10T05:03:14;18.10;63.70
3699;DHT22;1865;50.918;7.092;2023-05-10T05:05:40;17.90;62.90
3699;DHT22;1865;50.918;7.092;2023-05-10T05:08:05;18.00;64.60
3699;DHT22;1865;50.918;7.092;2023-05-10T05:10:31;18.00;64.40
3699;DHT22;1865;50.918;7.092;2023-05-10T05:12:56;18.00;63.70
3699;DHT22;1865;50.918;7.092;2023-05-10T05:15:22;18.00;64.20
3699;DHT22;1865;50.918;7.092;2023-05-10T05:17:47;18.00;63.70
3699;DHT22;1865;50.918;7.092;2023-05-10T05:20:13;18.00;64.10
3699;DHT22;1865;50.918;7.092;2023-05-10T05:22:39;18.00;64.20
3699;DHT22;1865;50.918;7.092;2023-05-10T05:25:05;18.10;64.00
3699;DHT22;1865;50.918;7.092;2023-05-10T05:27:31;18.00;64.20
3699;DHT22;1865;50.918;7.092;2023-05-10T05:29:57;18.00;64.10
3699;DHT22;1865;50.918;7.092;2023-05-10T05:32:23;17.80;64.50
3699;DHT22;1865;50.918;7.092;2023-05-10T05:34:49;17.90;64.80
3699;DHT22;1865;50.918;7.092;2023-05-10T05:37:16;17.90;64.50
3699;DHT22;1865;50.918;7.092;2023-05-10T05:39:42;17.90;64.00
3699;DHT22;1865;50.918;7.092;2023-05-10T05:42:09;18.00;64.20
3699;DHT22;1865;50.918;7.092;2023-05-10T05:44:34;18.10;64.20
3699;DHT22;1865;50.918;7.092;2023-05-10T05:47:00;18.10;63.40
3699;DHT22;1865;50.918;7.092;2023-05-10T05:49:26;18.20;63.50
3699;DHT22;1865;50.918;7.092;2023-05-10T05:51:51;18.20;62.90
3699;DHT22;1865;50.918;7.092;2023-05-10T05:54:17;18.20;63.10
3699;DHT22;1865;50.918;7.092;2023-05-10T05:56:42;18.20;63.00
3699;DHT22;1865;50.918;7.092;2023-05-10T05:59:09;18.20;62.60
3699;DHT22;1865;50.918;7.092;2023-05-10T06:01:35;18.20;61.90
3699;DHT22;1865;50.918;7.092;2023-05-10T06:04:00;18.20;62.40
3699;DHT22;1865;50.918;7.092;2023-05-10T06:06:26;18.20;62.20
3699;DHT22;1865;50.918;7.092;2023-05-10T06:08:52;18.10;62.00
3699;DHT22;1865;50.918;7.092;2023-05-10T06:11:17;18.10;62.40
3699;DHT22;1865;50.918;7.092;2023-05-10T06:13:43;18.20;62.90
3699;DHT22;1865;50.918;7.092;2023-05-10T06:16:08;18.20;62.40
3699;DHT22;1865;50.918;7.092;2023-05-10T06:18:34;18.20;61.90
3699;DHT22;1865;50.918;7.092;2023-05-10T06:21:00;18.20;61.90
3699;DHT22;1865;50.918;7.092;2023-05-10T06:23:25;18.20;62.20
3699;DHT22;1865;50.918;7.092;2023-05-10T06:25:51;18.30;62.20
3699;DHT22;1865;50.918;7.092;2023-05-10T06:28:17;18.30;62.30
3699;DHT22;1865;50.918;7.092;2023-05-10T06:30:43;18.20;61.70
3699;DHT22;1865;50.918;7.092;2023-05-10T06:33:08;18.20;62.10
3699;DHT22;1865;50.918;7.092;2023-05-10T06:35:34;18.30;62.10
3699;DHT22;1865;50.918;7.092;2023-05-10T06:37:59;18.30;62.20
3699;DHT22;1865;50.918;7.092;2023-05-10T06:40:25;18.20;62.10
3699;DHT22;1865;50.918;7.092;2023-05-10T06:42:51;18.20;62.20
3699;DHT22;1865;50.918;7.092;2023-05-10T06:45:17;18.20;62.30
3699;DHT22;1865;50.918;7.092;2023-05-10T06:47:42;18.20;61.80
3699;DHT22;1865;50.918;7.092;2023-05-10T06:50:08;18.20;61.90
3699;DHT22;1865;50.918;7.092;2023-05-10T06:52:34;18.00;61.50
3699;DHT22;1865;50.918;7.092;2023-05-10T06:55:00;18.10;62.00
3699;DHT22;1865;50.918;7.092;2023-05-10T06:57:26;18.10;62.10
3699;DHT22;1865;50.918;7.092;2023-05-10T06:59:52;18.20;62.00
3699;DHT22;1865;50.918;7.092;2023-05-10T07:02:18;18.20;62.10
3699;DHT22;1865;50.918;7.092;2023-05-10T07:04:43;18.20;61.80
3699;DHT22;1865;50.918;7.092;2023-05-10T07:07:09;18.30;61.90
3699;DHT22;1865;50.918;7.092;2023-05-10T07:09:34;18.10;61.90
3699;DHT22;1865;50.918;7.092;2023-05-10T07:12:00;18.20;62.10
3699;DHT22;1865;50.918;7.092;2023-05-10T07:14:27;18.20;61.90
3699;DHT22;1865;50.918;7.092;2023-05-10T07:16:53;18.20;61.60
3699;DHT22;1865;50.918;7.092;2023-05-10T07:19:18;18.10;60.60
3699;DHT22;1865;50.918;7.092;2023-05-10T07:21:44;18.20;61.70
3699;DHT22;1865;50.918;7.092;2023-05-10T07:24:10;18.20;62.10
3699;DHT22;1865;50.918;7.092;2023-05-10T07:26:36;18.20;61.90
3699;DHT22;1865;50.918;7.092;2023-05-10T07:29:01;18.30;62.10
3699;DHT22;1865;50.918;7.092;2023-05-10T07:31:27;18.30;62.10
3699;DHT22;1865;50.918;7.092;2023-05-10T07:33:53;18.00;61.50
3699;DHT22;1865;50.918;7.092;2023-05-10T07:36:19;18.10;62.40
3699;DHT22;1865;50.918;7.092;2023-05-10T07:38:44;18.10;62.10
3699;DHT22;1865;50.918;7.092;2023-05-10T07:41:12;18.10;62.50
3699;DHT22;1865;50.918;7.092;2023-05-10T07:43:37;18.10;62.40
3699;DHT22;1865;50.918;7.092;2023-05-10T07:46:03;18.20;62.40
3699;DHT22;1865;50.918;7.092;2023-05-10T07:48:28;18.10;62.10
3699;DHT22;1865;50.918;7.092;2023-05-10T07:50:54;18.20;62.20
3699;DHT22;1865;50.918;7.092;2023-05-10T07:53:19;18.20;62.00
3699;DHT22;1865;50.918;7.092;2023-05-10T07:55:51;18.20;62.40
3699;DHT22;1865;50.918;7.092;2023-05-10T07:58:17;18.20;62.20
3699;DHT22;1865;50.918;7.092;2023-05-10T08:00:42;18.20;62.00
3699;DHT22;1865;50.918;7.092;2023-05-10T08:03:08;18.20;62.50
3699;DHT22;1865;50.918;7.092;2023-05-10T08:05:33;18.20;62.70
3699;DHT22;1865;50.918;7.092;2023-05-10T08:07:59;18.20;63.10
3699;DHT22;1865;50.918;7.092;2023-05-10T08:10:25;18.20;62.60
3699;DHT22;1865;50.918;7.092;2023-05-10T08:12:50;18.20;62.70
3699;DHT22;1865;50.918;7.092;2023-05-10T08:15:16;18.20;62.60
3699;DHT22;1865;50.918;7.092;2023-05-10T08:17:42;18.20;63.10
3699;DHT22;1865;50.918;7.092;2023-05-10T08:20:08;18.30;63.30
3699;DHT22;1865;50.918;7.092;2023-05-10T08:22:34;18.30;63.00
3699;DHT22;1865;50.918;7.092;2023-05-10T08:24:59;18.30;63.30
3699;DHT22;1865;50.918;7.092;2023-05-10T08:27:25;18.50;63.10
3699;DHT22;1865;50.918;7.092;2023-05-10T08:29:50;18.70;63.10
3699;DHT22;1865;50.918;7.092;2023-05-10T08:32:17;18.70;62.20
3699;DHT22;1865;50.918;7.092;2023-05-10T08:34:42;18.80;62.20
3699;DHT22;1865;50.918;7.092;2023-05-10T08:37:08;19.00;62.20
3699;DHT22;1865;50.918;7.092;2023-05-10T08:39:37;19.10;62.20
3699;DHT22;1865;50.918;7.092;2023-05-10T08:42:04;19.10;61.60
3699;DHT22;1865;50.918;7.092;2023-05-10T08:44:35;19.10;60.70
3699;DHT22;1865;50.918;7.092;2023-05-10T08:47:04;19.10;61.20
3699;DHT22;1865;50.918;7.092;2023-05-10T08:49:32;19.20;61.40
3699;DHT22;1865;50.918;7.092;2023-05-10T08:52:01;19.30;61.40
3699;DHT22;1865;50.918;7.092;2023-05-10T08:54:27;19.30;60.80
3699;DHT22;1865;50.918;7.092;2023-05-10T08:56:53;19.30;59.90
3699;DHT22;1865;50.918;7.092;2023-05-10T08:59:18;19.40;60.30
3699;DHT22;1865;50.918;7.092;2023-05-10T09:01:44;19.40;60.10
3699;DHT22;1865;50.918;7.092;2023-05-10T09:04:12;19.50;60.20
3699;DHT22;1865;50.918;7.092;2023-05-10T09:06:37;19.30;60.40
3699;DHT22;1865;50.918;7.092;2023-05-10T09:09:03;19.30;60.60
3699;DHT22;1865;50.918;7.092;2023-05-10T09:11:29;19.10;60.30
3699;DHT22;1865;50.918;7.092;2023-05-10T09:13:55;18.90;60.40
3699;DHT22;1865;50.918;7.092;2023-05-10T09:16:22;18.80;61.00
3699;DHT22;1865;50.918;7.092;2023-05-10T09:18:47;18.70;61.60
3699;DHT22;1865;50.918;7.092;2023-05-10T09:21:14;18.50;62.30
3699;DHT22;1865;50.918;7.092;2023-05-10T09:23:43;18.50;62.50
3699;DHT22;1865;50.918;7.092;2023-05-10T09:26:09;18.50;62.70
3699;DHT22;1865;50.918;7.092;2023-05-10T09:28:57;18.60;62.40
3699;DHT22;1865;50.918;7.092;2023-05-10T09:31:23;18.70;62.80
3699;DHT22;1865;50.918;7.092;2023-05-10T09:33:50;18.80;62.80
3699;DHT22;1865;50.918;7.092;2023-05-10T09:36:17;18.80;62.80
3699;DHT22;1865;50.918;7.092;2023-05-10T09:38:50;18.90;62.70
3699;DHT22;1865;50.918;7.092;2023-05-10T09:41:21;19.00;62.70
3699;DHT22;1865;50.918;7.092;2023-05-10T09:43:47;19.10;61.80
3699;DHT22;1865;50.918;7.092;2023-05-10T09:46:15;19.20;62.40
3699;DHT22;1865;50.918;7.092;2023-05-10T09:48:47;19.30;62.30
3699;DHT22;1865;50.918;7.092;2023-05-10T09:51:25;19.40;62.10
3699;DHT22;1865;50.918;7.092;2023-05-10T09:54:11;19.60;62.10
3699;DHT22;1865;50.918;7.092;2023-05-10T09:56:38;19.60;61.50
3699;DHT22;1865;50.918;7.092;2023-05-10T09:59:06;19.80;61.20
3699;DHT22;1865;50.918;7.092;2023-05-10T10:01:33;19.90;61.10
3699;DHT22;1865;50.918;7.092;2023-05-10T10:03:59;19.90;60.30
3699;DHT22;1865;50.918;7.092;2023-05-10T10:06:27;19.70;60.10
3699;DHT22;1865;50.918;7.092;2023-05-10T10:08:54;19.50;60.10
3699;DHT22;1865;50.918;7.092;2023-05-10T10:11:20;19.30;59.50
3699;DHT22;1865;50.918;7.092;2023-05-10T10:13:45;19.00;58.10
3699;DHT22;1865;50.918;7.092;2023-05-10T10:16:11;18.70;59.20
3699;DHT22;1865;50.918;7.092;2023-05-10T10:18:37;18.50;59.50
3699;DHT22;1865;50.918;7.092;2023-05-10T10:21:08;18.50;60.50
3699;DHT22;1865;50.918;7.092;2023-05-10T10:23:36;18.50;61.00
3699;DHT22;1865;50.918;7.092;2023-05-10T10:26:03;18.40;61.40
3699;DHT22;1865;50.918;7.092;2023-05-10T10:31:36;18.50;61.70
3699;DHT22;1865;50.918;7.092;2023-05-10T10:34:21;18.50;62.10
3699;DHT22;1865;50.918;7.092;2023-05-10T10:36:50;18.70;62.40
3699;DHT22;1865;50.918;7.092;2023-05-10T10:39:16;18.80;62.40
3699;DHT22;1865;50.918;7.092;2023-05-10T10:41:55;19.00;62.40
3699;DHT22;1865;50.918;7.092;2023-05-10T10:47:23;19.40;61.80
3699;DHT22;1865;50.918;7.092;2023-05-10T10:52:36;19.60;60.90
3699;DHT22;1865;50.918;7.092;2023-05-10T10:55:22;19.60;59.80
3699;DHT22;1865;50.918;7.092;2023-05-10T10:57:53;19.60;59.40
3699;DHT22;1865;50.918;7.092;2023-05-10T11:03:12;19.40;58.70
3699;DHT22;1865;50.918;7.092;2023-05-10T11:05:53;19.40;57.80
3699;DHT22;1865;50.918;7.092;2023-05-10T11:08:28;19.40;58.50
3699;DHT22;1865;50.918;7.092;2023-05-10T11:13:41;19.40;58.50
3699;DHT22;1865;50.918;7.092;2023-05-10T11:16:20;19.30;58.30
3699;DHT22;1865;50.918;7.092;2023-05-10T11:19:06;19.40;59.20
3699;DHT22;1865;50.918;7.092;2023-05-10T11:21:33;19.60;57.90
3699;DHT22;1865;50.918;7.092;2023-05-10T11:24:00;19.60;58.40
3699;DHT22;1865;50.918;7.092;2023-05-10T11:26:34;19.50;58.00
3699;DHT22;1865;50.918;7.092;2023-05-10T11:29:00;19.30;56.10
3699;DHT22;1865;50.918;7.092;2023-05-10T11:31:28;19.50;57.60
3699;DHT22;1865;50.918;7.092;2023-05-10T11:33:56;19.60;57.30
3699;DHT22;1865;50.918;7.092;2023-05-10T11:36:26;19.80;58.20
3699;DHT22;1865;50.918;7.092;2023-05-10T11:38:53;19.90;55.30
3699;DHT22;1865;50.918;7.092;2023-05-10T11:41:20;19.80;55.30
3699;DHT22;1865;50.918;7.092;2023-05-10T11:43:53;19.80;55.40
3699;DHT22;1865;50.918;7.092;2023-05-10T11:46:20;19.90;55.40
3699;DHT22;1865;50.918;7.092;2023-05-10T11:48:48;19.80;55.00
3699;DHT22;1865;50.918;7.092;2023-05-10T11:51:14;20.00;56.00
3699;DHT22;1865;50.918;7.092;2023-05-10T11:53:40;19.90;53.20
3699;DHT22;1865;50.918;7.092;2023-05-10T11:56:07;19.80;54.30
3699;DHT22;1865;50.918;7.092;2023-05-10T11:58:33;19.90;55.20
3699;DHT22;1865;50.918;7.092;2023-05-10T12:00:59;19.80;54.20
3699;DHT22;1865;50.918;7.092;2023-05-10T12:03:26;20.00;55.60
3699;DHT22;1865;50.918;7.092;2023-05-10T12:05:52;20.10;55.00
3699;DHT22;1865;50.918;7.092;2023-05-10T12:08:21;20.30;55.90
3699;DHT22;1865;50.918;7.092;2023-05-10T12:10:47;20.40;57.20
3699;DHT22;1865;50.918;7.092;2023-05-10T12:13:13;20.00;53.10
3699;DHT22;1865;50.918;7.092;2023-05-10T12:15:41;19.90;54.80
3699;DHT22;1865;50.918;7.092;2023-05-10T12:18:11;19.60;53.90
3699;DHT22;1865;50.918;7.092;2023-05-10T12:20:37;19.70;54.70
3699;DHT22;1865;50.918;7.092;2023-05-10T12:23:04;20.00;56.00
3699;DHT22;1865;50.918;7.092;2023-05-10T12:25:32;20.10;54.30
3699;DHT22;1865;50.918;7.092;2023-05-10T12:27:59;20.00;51.50
3699;DHT22;1865;50.918;7.092;2023-05-10T12:30:30;20.40;53.50
3699;DHT22;1865;50.918;7.092;2023-05-10T12:33:12;20.50;52.80
3699;DHT22;1865;50.918;7.092;2023-05-10T12:35:52;20.90;53.60
3699;DHT22;1865;50.918;7.092;2023-05-10T12:38:29;21.30;51.50
3699;DHT22;1865;50.918;7.092;2023-05-10T12:41:00;21.80;52.90
3699;DHT22;1865;50.918;7.092;2023-05-10T12:43:25;21.90;51.30
3699;DHT22;1865;50.918;7.092;2023-05-10T12:45:51;22.00;48.80
3699;DHT22;1865;50.918;7.092;2023-05-10T12:48:17;22.10;49.80
3699;DHT22;1865;50.918;7.092;2023-05-10T12:50:42;21.90;46.20
3699;DHT22;1865;50.918;7.092;2023-05-10T12:53:08;21.90;48.80
3699;DHT22;1865;50.918;7.092;2023-05-10T12:55:33;22.00;49.00
3699;DHT22;1865;50.918;7.092;2023-05-10T12:57:59;22.10;48.70
3699;DHT22;1865;50.918;7.092;2023-05-10T13:00:25;21.90;46.10
3699;DHT22;1865;50.918;7.092;2023-05-10T13:02:51;21.70;49.40
3699;DHT22;1865;50.918;7.092;2023-05-10T13:05:16;21.10;46.70
3699;DHT22;1865;50.918;7.092;2023-05-10T13:07:42;21.20;50.20
3699;DHT22;1865;50.918;7.092;2023-05-10T13:10:09;21.20;50.50
3699;DHT22;1865;50.918;7.092;2023-05-10T13:12:35;21.50;51.30
3699;DHT22;1865;50.918;7.092;2023-05-10T13:15:01;21.90;50.50
3699;DHT22;1865;50.918;7.092;2023-05-10T13:17:28;22.20;41.90
3699;DHT22;1865;50.918;7.092;2023-05-10T13:19:54;22.80;44.30
3699;DHT22;1865;50.918;7.092;2023-05-10T13:22:19;23.80;44.80
3699;DHT22;1865;50.918;7.092;2023-05-10T13:24:45;24.90;45.40
3699;DHT22;1865;50.918;7.092;2023-05-10T13:27:10;25.90;43.20
3699;DHT22;1865;50.918;7.092;2023-05-10T13:29:36;27.40;39.30
3699;DHT22;1865;50.918;7.092;2023-05-10T13:32:01;28.60;36.60
3699;DHT22;1865;50.918;7.092;2023-05-10T13:34:27;29.20;34.10
3699;DHT22;1865;50.918;7.092;2023-05-10T13:36:53;29.30;34.60
3699;DHT22;1865;50.918;7.092;2023-05-10T13:39:20;28.90;33.80
3699;DHT22;1865;50.918;7.092;2023-05-10T13:41:46;28.00;35.20
3699;DHT22;1865;50.918;7.092;2023-05-10T13:44:14;27.00;36.50
3699;DHT22;1865;50.918;7.092;2023-05-10T13:46:41;25.40;33.90
3699;DHT22;1865;50.918;7.092;2023-05-10T13:49:08;24.50;38.50
3699;DHT22;1865;50.918;7.092;2023-05-10T13:51:34;23.90;40.40
3699;DHT22;1865;50.918;7.092;2023-05-10T13:53:59;23.40;43.60
3699;DHT22;1865;50.918;7.092;2023-05-10T13:56:25;22.50;39.50
3699;DHT22;1865;50.918;7.092;2023-05-10T13:58:51;22.00;41.10
3699;DHT22;1865;50.918;7.092;2023-05-10T14:01:16;21.80;42.70
3699;DHT22;1865;50.918;7.092;2023-05-10T14:03:42;21.70;42.50
3699;DHT22;1865;50.918;7.092;2023-05-10T14:06:08;21.40;44.80
3699;DHT22;1865;50.918;7.092;2023-05-10T14:08:34;21.40;45.10
3699;DHT22;1865;50.918;7.092;2023-05-10T14:11:00;21.60;46.00
3699;DHT22;1865;50.918;7.092;2023-05-10T14:13:26;21.60;45.60
3699;DHT22;1865;50.918;7.092;2023-05-10T14:15:53;21.60;45.30
3699;DHT22;1865;50.918;7.092;2023-05-10T14:18:19;21.60;46.50
3699;DHT22;1865;50.918;7.092;2023-05-10T14:20:44;21.60;45.10
3699;DHT22;1865;50.918;7.092;2023-05-10T14:23:10;21.60;46.30
3699;DHT22;1865;50.918;7.092;2023-05-10T14:25:35;21.60;47.00
3699;DHT22;1865;50.918;7.092;2023-05-10T14:28:01;21.60;45.10
3699;DHT22;1865;50.918;7.092;2023-05-10T14:30:27;21.60;46.30
3699;DHT22;1865;50.918;7.092;2023-05-10T14:32:52;21.60;46.80
3699;DHT22;1865;50.918;7.092;2023-05-10T14:35:19;21.40;45.80
3699;DHT22;1865;50.918;7.092;2023-05-10T14:37:45;21.40;46.40
3699;DHT22;1865;50.918;7.092;2023-05-10T14:40:10;21.40;47.00
3699;DHT22;1865;50.918;7.092;2023-05-10T14:42:37;21.30;47.40
3699;DHT22;1865;50.918;7.092;2023-05-10T14:45:03;21.40;46.80
3699;DHT22;1865;50.918;7.092;2023-05-10T14:47:29;21.30;48.30
3699;DHT22;1865;50.918;7.092;2023-05-10T14:49:54;21.30;48.30
3699;DHT22;1865;50.918;7.092;2023-05-10T14:52:20;21.30;46.50
3699;DHT22;1865;50.918;7.092;2023-05-10T14:54:45;21.30;46.90
3699;DHT22;1865;50.918;7.092;2023-05-10T14:57:11;21.30;49.50
3699;DHT22;1865;50.918;7.092;2023-05-10T14:59:37;21.20;47.10
3699;DHT22;1865;50.918;7.092;2023-05-10T15:02:02;21.10;46.70
3699;DHT22;1865;50.918;7.092;2023-05-10T15:04:29;21.10;48.00
3699;DHT22;1865;50.918;7.092;2023-05-10T15:06:55;21.10;47.60
3699;DHT22;1865;50.918;7.092;2023-05-10T15:09:24;21.20;47.20
3699;DHT22;1865;50.918;7.092;2023-05-10T15:11:50;21.30;46.10
3699;DHT22;1865;50.918;7.092;2023-05-10T15:14:15;21.40;47.10
3699;DHT22;1865;50.918;7.092;2023-05-10T15:16:41;21.40;45.90
3699;DHT22;1865;50.918;7.092;2023-05-10T15:19:06;21.50;47.80
3699;DHT22;1865;50.918;7.092;2023-05-10T15:21:32;21.60;48.20
3699;DHT22;1865;50.918;7.092;2023-05-10T15:24:06;21.70;48.50
3699;DHT22;1865;50.918;7.092;2023-05-10T15:26:32;21.40;44.90
3699;DHT22;1865;50.918;7.092;2023-05-10T15:28:58;21.40;45.80
3699;DHT22;1865;50.918;7.092;2023-05-10T15:31:23;21.40;45.80
3699;DHT22;1865;50.918;7.092;2023-05-10T15:33:49;21.40;46.40
3699;DHT22;1865;50.918;7.092;2023-05-10T15:36:14;21.40;46.40
3699;DHT22;1865;50.918;7.092;2023-05-10T15:38:43;21.30;47.70
3699;DHT22;1865;50.918;7.092;2023-05-10T15:41:08;21.20;49.90
3699;DHT22;1865;50.918;7.092;2023-05-10T15:43:34;21.20;50.40
3699;DHT22;1865;50.918;7.092;2023-05-10T15:45:59;21.00;50.70
3699;DHT22;1865;50.918;7.092;2023-05-10T15:48:25;20.90;50.50
3699;DHT22;1865;50.918;7.092;2023-05-10T15:50:50;20.80;51.70
3699;DHT22;1865;50.918;7.092;2023-05-10T15:53:16;20.70;52.20
3699;DHT22;1865;50.918;7.092;2023-05-10T15:55:42;20.60;53.00
3699;DHT22;1865;50.918;7.092;2023-05-10T15:58:07;20.50;53.40
3699;DHT22;1865;50.918;7.092;2023-05-10T16:00:33;20.40;53.90
3699;DHT22;1865;50.918;7.092;2023-05-10T16:02:58;20.30;55.30
3699;DHT22;1865;50.918;7.092;2023-05-10T16:05:24;20.20;56.20
3699;DHT22;1865;50.918;7.092;2023-05-10T16:07:51;20.20;56.60
3699;DHT22;1865;50.918;7.092;2023-05-10T16:10:17;20.10;57.10
3699;DHT22;1865;50.918;7.092;2023-05-10T16:12:42;20.00;57.70
3699;DHT22;1865;50.918;7.092;2023-05-10T16:15:09;19.90;58.80
3699;DHT22;1865;50.918;7.092;2023-05-10T16:17:35;19.70;59.80
3699;DHT22;1865;50.918;7.092;2023-05-10T16:20:01;19.40;60.10
3699;DHT22;1865;50.918;7.092;2023-05-10T16:22:27;19.20;59.70
3699;DHT22;1865;50.918;7.092;2023-05-10T16:24:53;19.10;60.40
3699;DHT22;1865;50.918;7.092;2023-05-10T16:27:19;19.10;60.00
3699;DHT22;1865;50.918;7.092;2023-05-10T16:29:46;18.80;59.80
3699;DHT22;1865;50.918;7.092;2023-05-10T16:32:11;18.70;60.80